sensor_id;sensor_type;location;lat;lon;timestamp;temperature;humidity
11599;DHT22;5855;48.840;9.188;2023-02-11T00:00:26;-2.30;99.90
11599;DHT22;5855;48.840;9.188;2023-02-11T00:02:53;-2.20;99.90
11599;DHT22;5855;48.840;9.188;2023-02-11T00:05:20;-2.10;99.90
11599;DHT22;5855;48.840;9.188;2023-02-11T00:07:48;-2.10;99.90
11599;DHT22;5855;48.840;9.188;2023-02-11T00:10:15;-2.10;99.90
11599;DHT22;5855;48.840;9.188;2023-02-11T00:12:41;-2.00;99.90
11599;DHT22;5855;48.840;9.188;2023-02-11T00:15:09;-2.10;99.90
11599;DHT22;5855;48.840;9.188;2023-02-11T00:17:36;-2.10;99.90
11599;DHT22;5855;48.840;9.188;2023-02-11T00:20:03;-2.00;99.90
11599;DHT22;5855;48.840;9.188;2023-02-11T00:22:30;-2.00;99.90
11599;DHT22;5855;48.840;9.188;2023-02-11T00:24:58;-1.90;99.90
11599;DHT22;5855;48.840;9.188;2023-02-11T00:27:25;-1.90;99.90
11599;DHT22;5855;48.840;9.188;2023-02-11T00:29:52;-2.00;99.90
11599;DHT22;5855;48.840;9.188;2023-02-11T00:32:20;-2.00;99.90
11599;DHT22;5855;48.840;9.188;2023-02-11T00:34:50;-2.10;99.90
11599;DHT22;5855;48.840;9.188;2023-02-11T00:37:17;-2.00;99.90
11599;DHT22;5855;48.840;9.188;2023-02-11T00:39:44;-2.10;99.90
11599;DHT22;5855;48.840;9.188;2023-02-11T00:42:14;-2.20;99.90
11599;DHT22;5855;48.840;9.188;2023-02-11T00:44:41;-2.20;99.90
11599;DHT22;5855;48.840;9.188;2023-02-11T00:47:08;-2.20;99.90
11599;DHT22;5855;48.840;9.188;2023-02-11T00:49:35;-2.20;99.90
11599;DHT22;5855;48.840;9.188;2023-02-11T00:52:04;-2.20;99.90
11599;DHT22;5855;48.840;9.188;2023-02-11T00:54:30;-2.30;99.90
11599;DHT22;5855;48.840;9.188;2023-02-11T00:56:57;-2.30;99.90
11599;DHT22;5855;48.840;9.188;2023-02-11T00:59:25;-2.30;99.90
11599;DHT22;5855;48.840;9.188;2023-02-11T01:01:52;-2.40;99.90
11599;DHT22;5855;48.840;9.188;2023-02-11T01:04:19;-2.40;99.90
11599;DHT22;5855;48.840;9.188;2023-02-11T01:06:46;-2.40;99.90
11599;DHT22;5855;48.840;9.188;2023-02-11T01:09:12;-2.50;99.90
11599;DHT22;5855;48.840;9.188;2023-02-11T01:11:39;-2.50;99.90
11599;DHT22;5855;48.840;9.188;2023-02-11T01:14:06;-2.50;99.90
11599;DHT22;5855;48.840;9.188;2023-02-11T01:16:34;-2.60;99.90
11599;DHT22;5855;48.840;9.188;2023-02-11T01:19:01;-2.60;99.90
11599;DHT22;5855;48.840;9.188;2023-02-11T01:21:28;-2.60;99.90
11599;DHT22;5855;48.840;9.188;2023-02-11T01:23:55;-2.60;99.90
11599;DHT22;5855;48.840;9.188;2023-02-11T01:26:22;-2.60;99.90
11599;DHT22;5855;48.840;9.188;2023-02-11T01:28:48;-2.60;99.90
11599;DHT22;5855;48.840;9.188;2023-02-11T01:31:15;-2.50;99.90
11599;DHT22;5855;48.840;9.188;2023-02-11T01:33:44;-2.40;99.90
11599;DHT22;5855;48.840;9.188;2023-02-11T01:36:11;-2.30;99.90
11599;DHT22;5855;48.840;9.188;2023-02-11T01:38:38;-2.30;99.90
11599;DHT22;5855;48.840;9.188;2023-02-11T01:41:07;-2.40;99.90
11599;DHT22;5855;48.840;9.188;2023-02-11T01:43:36;-2.40;99.90
11599;DHT22;5855;48.840;9.188;2023-02-11T01:46:13;-2.40;99.90
11599;DHT22;5855;48.840;9.188;2023-02-11T01:48:46;-2.50;99.90
11599;DHT22;5855;48.840;9.188;2023-02-11T01:51:19;-2.50;99.90
11599;DHT22;5855;48.840;9.188;2023-02-11T01:53:47;-2.50;99.90
11599;DHT22;5855;48.840;9.188;2023-02-11T01:56:35;-2.60;99.90
11599;DHT22;5855;48.840;9.188;2023-02-11T01:59:26;-2.60;99.90
11599;DHT22;5855;48.840;9.188;2023-02-11T02:01:57;-2.60;99.90
11599;DHT22;5855;48.840;9.188;2023-02-11T02:04:32;-2.60;99.90
11599;DHT22;5855;48.840;9.188;2023-02-11T02:07:05;-2.50;99.90
11599;DHT22;5855;48.840;9.188;2023-02-11T02:09:38;-2.50;99.90
11599;DHT22;5855;48.840;9.188;2023-02-11T02:12:07;-2.40;99.90
11599;DHT22;5855;48.840;9.188;2023-02-11T02:14:37;-2.30;99.90
11599;DHT22;5855;48.840;9.188;2023-02-11T02:17:04;-2.30;99.90
11599;DHT22;5855;48.840;9.188;2023-02-11T02:23:10;-2.30;99.90
11599;DHT22;5855;48.840;9.188;2023-02-11T02:32:22;-2.30;99.90
11599;DHT22;5855;48.840;9.188;2023-02-11T02:34:57;-2.40;99.90
11599;DHT22;5855;48.840;9.188;2023-02-11T02:37:33;-2.40;99.90
11599;DHT22;5855;48.840;9.188;2023-02-11T02:40:05;-2.40;99.90
11599;DHT22;5855;48.840;9.188;2023-02-11T02:42:35;-2.40;99.90
11599;DHT22;5855;48.840;9.188;2023-02-11T02:45:02;-2.40;99.90
11599;DHT22;5855;48.840;9.188;2023-02-11T02:47:30;-2.40;99.90
11599;DHT22;5855;48.840;9.188;2023-02-11T02:49:57;-2.40;99.90
11599;DHT22;5855;48.840;9.188;2023-02-11T02:52:33;-2.30;99.90
11599;DHT22;5855;48.840;9.188;2023-02-11T02:55:16;-2.30;99.90
11599;DHT22;5855;48.840;9.188;2023-02-11T02:58:03;-2.30;99.90
11599;DHT22;5855;48.840;9.188;2023-02-11T03:00:34;-2.30;99.90
11599;DHT22;5855;48.840;9.188;2023-02-11T03:03:16;-2.30;99.90
11599;DHT22;5855;48.840;9.188;2023-02-11T03:05:50;-2.40;99.90
11599;DHT22;5855;48.840;9.188;2023-02-11T03:08:24;-2.40;99.90
11599;DHT22;5855;48.840;9.188;2023-02-11T03:10:53;-2.50;99.90
11599;DHT22;5855;48.840;9.188;2023-02-11T03:13:25;-2.50;99.90
11599;DHT22;5855;48.840;9.188;2023-02-11T03:15:55;-2.50;99.90
11599;DHT22;5855;48.840;9.188;2023-02-11T03:18:27;-2.60;99.90
11599;DHT22;5855;48.840;9.188;2023-02-11T03:20:56;-2.60;99.90
11599;DHT22;5855;48.840;9.188;2023-02-11T03:23:28;-2.50;99.90
11599;DHT22;5855;48.840;9.188;2023-02-11T03:25:57;-2.50;99.90
11599;DHT22;5855;48.840;9.188;2023-02-11T03:28:29;-2.40;99.90
11599;DHT22;5855;48.840;9.188;2023-02-11T03:31:07;-2.50;99.90
11599;DHT22;5855;48.840;9.188;2023-02-11T03:33:40;-2.50;99.90
11599;DHT22;5855;48.840;9.188;2023-02-11T03:36:12;-2.50;99.90
11599;DHT22;5855;48.840;9.188;2023-02-11T03:38:44;-2.60;99.90
11599;DHT22;5855;48.840;9.188;2023-02-11T03:41:14;-2.60;99.90
11599;DHT22;5855;48.840;9.188;2023-02-11T03:43:43;-2.50;99.90
11599;DHT22;5855;48.840;9.188;2023-02-11T03:46:12;-2.50;99.90
11599;DHT22;5855;48.840;9.188;2023-02-11T03:48:45;-2.40;99.90
11599;DHT22;5855;48.840;9.188;2023-02-11T03:51:14;-2.40;99.90
11599;DHT22;5855;48.840;9.188;2023-02-11T03:53:44;-2.40;99.90
11599;DHT22;5855;48.840;9.188;2023-02-11T03:56:16;-2.30;99.90
11599;DHT22;5855;48.840;9.188;2023-02-11T03:58:43;-2.30;99.90
11599;DHT22;5855;48.840;9.188;2023-02-11T04:01:10;-2.20;99.90
11599;DHT22;5855;48.840;9.188;2023-02-11T04:03:37;-2.20;99.90
11599;DHT22;5855;48.840;9.188;2023-02-11T04:06:06;-2.10;99.90
11599;DHT22;5855;48.840;9.188;2023-02-11T04:08:33;-2.00;99.90
11599;DHT22;5855;48.840;9.188;2023-02-11T04:11:00;-2.00;99.90
11599;DHT22;5855;48.840;9.188;2023-02-11T04:13:27;-1.90;99.90
11599;DHT22;5855;48.840;9.188;2023-02-11T04:15:54;-1.80;99.90
11599;DHT22;5855;48.840;9.188;2023-02-11T04:18:21;-1.70;99.90
11599;DHT22;5855;48.840;9.188;2023-02-11T04:20:49;-1.60;99.90
11599;DHT22;5855;48.840;9.188;2023-02-11T04:23:17;-1.50;99.90
11599;DHT22;5855;48.840;9.188;2023-02-11T04:25:44;-1.40;99.90
11599;DHT22;5855;48.840;9.188;2023-02-11T04:28:11;-1.40;99.90
11599;DHT22;5855;48.840;9.188;2023-02-11T04:30:38;-1.30;99.90
11599;DHT22;5855;48.840;9.188;2023-02-11T04:33:05;-1.30;99.90
11599;DHT22;5855;48.840;9.188;2023-02-11T04:35:32;-1.30;99.90
11599;DHT22;5855;48.840;9.188;2023-02-11T04:37:59;-1.20;99.90
11599;DHT22;5855;48.840;9.188;2023-02-11T04:40:27;-1.10;99.90
11599;DHT22;5855;48.840;9.188;2023-02-11T04:42:53;-1.10;99.90
11599;DHT22;5855;48.840;9.188;2023-02-11T04:45:20;-1.00;99.90
11599;DHT22;5855;48.840;9.188;2023-02-11T04:47:47;-0.90;99.90
11599;DHT22;5855;48.840;9.188;2023-02-11T04:50:14;-0.80;99.90
11599;DHT22;5855;48.840;9.188;2023-02-11T04:52:41;-0.70;99.90
11599;DHT22;5855;48.840;9.188;2023-02-11T04:55:08;-0.70;99.90
11599;DHT22;5855;48.840;9.188;2023-02-11T04:57:36;-0.70;99.90
11599;DHT22;5855;48.840;9.188;2023-02-11T05:00:04;-0.60;99.90
11599;DHT22;5855;48.840;9.188;2023-02-11T05:02:32;-0.60;99.90
11599;DHT22;5855;48.840;9.188;2023-02-11T05:04:59;-0.60;99.90
11599;DHT22;5855;48.840;9.188;2023-02-11T05:07:26;-0.50;99.90
11599;DHT22;5855;48.840;9.188;2023-02-11T05:09:53;-0.50;99.90
11599;DHT22;5855;48.840;9.188;2023-02-11T05:12:20;-0.50;99.90
11599;DHT22;5855;48.840;9.188;2023-02-11T05:14:48;-0.40;99.90
11599;DHT22;5855;48.840;9.188;2023-02-11T05:17:15;-0.40;99.90
11599;DHT22;5855;48.840;9.188;2023-02-11T05:19:41;-0.30;99.90
11599;DHT22;5855;48.840;9.188;2023-02-11T05:22:08;-0.30;99.90
11599;DHT22;5855;48.840;9.188;2023-02-11T05:24:35;-0.30;99.90
11599;DHT22;5855;48.840;9.188;2023-02-11T05:27:02;-0.20;99.90
11599;DHT22;5855;48.840;9.188;2023-02-11T05:29:29;-0.20;99.90
11599;DHT22;5855;48.840;9.188;2023-02-11T05:31:58;-0.20;99.90
11599;DHT22;5855;48.840;9.188;2023-02-11T05:34:25;-0.20;99.90
11599;DHT22;5855;48.840;9.188;2023-02-11T05:36:52;-0.20;99.90
11599;DHT22;5855;48.840;9.188;2023-02-11T05:39:19;-0.20;99.90
11599;DHT22;5855;48.840;9.188;2023-02-11T05:41:46;-0.10;99.90
11599;DHT22;5855;48.840;9.188;2023-02-11T05:44:12;0.00;99.90
11599;DHT22;5855;48.840;9.188;2023-02-11T05:46:39;0.00;99.90
11599;DHT22;5855;48.840;9.188;2023-02-11T05:49:08;0.00;99.90
11599;DHT22;5855;48.840;9.188;2023-02-11T05:51:34;0.00;99.90
11599;DHT22;5855;48.840;9.188;2023-02-11T05:54:01;-0.10;99.90
11599;DHT22;5855;48.840;9.188;2023-02-11T05:56:28;0.00;99.90
11599;DHT22;5855;48.840;9.188;2023-02-11T05:58:55;0.00;99.90
11599;DHT22;5855;48.840;9.188;2023-02-11T06:01:23;0.00;99.90
11599;DHT22;5855;48.840;9.188;2023-02-11T06:03:50;0.00;99.90
11599;DHT22;5855;48.840;9.188;2023-02-11T06:06:18;0.00;99.90
11599;DHT22;5855;48.840;9.188;2023-02-11T06:08:45;0.10;99.90
11599;DHT22;5855;48.840;9.188;2023-02-11T06:11:13;0.10;99.90
11599;DHT22;5855;48.840;9.188;2023-02-11T06:13:40;0.10;99.90
11599;DHT22;5855;48.840;9.188;2023-02-11T06:16:07;0.00;99.90
11599;DHT22;5855;48.840;9.188;2023-02-11T06:18:34;0.10;99.90
11599;DHT22;5855;48.840;9.188;2023-02-11T06:21:04;0.10;99.90
11599;DHT22;5855;48.840;9.188;2023-02-11T06:23:32;0.10;99.90
11599;DHT22;5855;48.840;9.188;2023-02-11T06:26:00;0.10;99.90
11599;DHT22;5855;48.840;9.188;2023-02-11T06:28:27;0.20;99.90
11599;DHT22;5855;48.840;9.188;2023-02-11T06:30:55;0.20;99.90
11599;DHT22;5855;48.840;9.188;2023-02-11T06:33:22;0.20;99.90
11599;DHT22;5855;48.840;9.188;2023-02-11T06:35:49;0.20;99.90
11599;DHT22;5855;48.840;9.188;2023-02-11T06:38:16;0.20;99.90
11599;DHT22;5855;48.840;9.188;2023-02-11T06:40:47;0.20;99.90
11599;DHT22;5855;48.840;9.188;2023-02-11T06:43:14;0.30;99.90
11599;DHT22;5855;48.840;9.188;2023-02-11T06:45:41;0.30;99.90
11599;DHT22;5855;48.840;9.188;2023-02-11T06:48:08;0.30;99.90
11599;DHT22;5855;48.840;9.188;2023-02-11T06:50:35;0.20;99.90
11599;DHT22;5855;48.840;9.188;2023-02-11T06:53:01;0.20;99.90
11599;DHT22;5855;48.840;9.188;2023-02-11T06:55:28;0.30;99.90
11599;DHT22;5855;48.840;9.188;2023-02-11T06:57:56;0.30;99.90
11599;DHT22;5855;48.840;9.188;2023-02-11T07:00:23;0.30;99.90
11599;DHT22;5855;48.840;9.188;2023-02-11T07:02:51;0.40;99.90
11599;DHT22;5855;48.840;9.188;2023-02-11T07:05:18;0.40;99.90
11599;DHT22;5855;48.840;9.188;2023-02-11T07:07:47;0.40;99.90
11599;DHT22;5855;48.840;9.188;2023-02-11T07:10:14;0.40;99.90
11599;DHT22;5855;48.840;9.188;2023-02-11T07:12:41;0.50;99.90
11599;DHT22;5855;48.840;9.188;2023-02-11T07:15:09;0.50;99.90
11599;DHT22;5855;48.840;9.188;2023-02-11T07:17:36;0.60;99.90
11599;DHT22;5855;48.840;9.188;2023-02-11T07:20:05;0.60;99.90
11599;DHT22;5855;48.840;9.188;2023-02-11T07:22:33;0.60;99.90
11599;DHT22;5855;48.840;9.188;2023-02-11T07:25:00;0.60;99.90
11599;DHT22;5855;48.840;9.188;2023-02-11T07:27:27;0.70;99.90
11599;DHT22;5855;48.840;9.188;2023-02-11T07:29:54;0.70;99.90
11599;DHT22;5855;48.840;9.188;2023-02-11T07:32:22;0.80;99.90
11599;DHT22;5855;48.840;9.188;2023-02-11T07:34:49;0.80;99.90
11599;DHT22;5855;48.840;9.188;2023-02-11T07:37:16;0.80;99.90
11599;DHT22;5855;48.840;9.188;2023-02-11T07:39:43;0.90;99.90
11599;DHT22;5855;48.840;9.188;2023-02-11T07:42:10;0.90;99.90
11599;DHT22;5855;48.840;9.188;2023-02-11T07:44:37;1.00;99.90
11599;DHT22;5855;48.840;9.188;2023-02-11T07:47:04;1.10;99.90
11599;DHT22;5855;48.840;9.188;2023-02-11T07:49:32;1.20;99.90
11599;DHT22;5855;48.840;9.188;2023-02-11T07:51:59;1.30;99.90
11599;DHT22;5855;48.840;9.188;2023-02-11T07:54:25;1.40;99.90
11599;DHT22;5855;48.840;9.188;2023-02-11T07:56:52;1.50;99.90
11599;DHT22;5855;48.840;9.188;2023-02-11T07:59:19;1.60;99.90
11599;DHT22;5855;48.840;9.188;2023-02-11T08:01:46;1.50;99.90
11599;DHT22;5855;48.840;9.188;2023-02-11T08:04:13;1.60;99.90
11599;DHT22;5855;48.840;9.188;2023-02-11T08:06:41;1.60;99.90
11599;DHT22;5855;48.840;9.188;2023-02-11T08:09:12;1.70;99.90
11599;DHT22;5855;48.840;9.188;2023-02-11T08:11:39;1.80;99.90
11599;DHT22;5855;48.840;9.188;2023-02-11T08:14:07;1.80;99.90
11599;DHT22;5855;48.840;9.188;2023-02-11T08:16:35;2.00;99.90
11599;DHT22;5855;48.840;9.188;2023-02-11T08:19:04;2.10;99.90
11599;DHT22;5855;48.840;9.188;2023-02-11T08:21:32;2.20;99.90
11599;DHT22;5855;48.840;9.188;2023-02-11T08:24:01;2.30;99.90
11599;DHT22;5855;48.840;9.188;2023-02-11T08:26:30;2.30;99.90
11599;DHT22;5855;48.840;9.188;2023-02-11T08:29:01;2.50;99.90
11599;DHT22;5855;48.840;9.188;2023-02-11T08:31:35;2.60;99.90
11599;DHT22;5855;48.840;9.188;2023-02-11T08:34:02;2.80;99.90
11599;DHT22;5855;48.840;9.188;2023-02-11T08:36:31;2.90;99.90
11599;DHT22;5855;48.840;9.188;2023-02-11T08:39:01;3.00;99.90
11599;DHT22;5855;48.840;9.188;2023-02-11T08:41:29;3.10;99.90
11599;DHT22;5855;48.840;9.188;2023-02-11T08:43:56;3.30;99.90
11599;DHT22;5855;48.840;9.188;2023-02-11T08:46:23;3.40;99.90
11599;DHT22;5855;48.840;9.188;2023-02-11T08:48:50;3.50;99.90
11599;DHT22;5855;48.840;9.188;2023-02-11T08:51:19;3.70;99.90
11599;DHT22;5855;48.840;9.188;2023-02-11T08:53:46;3.80;99.90
11599;DHT22;5855;48.840;9.188;2023-02-11T08:56:15;4.20;99.90
11599;DHT22;5855;48.840;9.188;2023-02-11T08:58:42;4.40;99.90
11599;DHT22;5855;48.840;9.188;2023-02-11T09:01:11;4.40;99.90
11599;DHT22;5855;48.840;9.188;2023-02-11T09:03:38;4.50;99.90
11599;DHT22;5855;48.840;9.188;2023-02-11T09:06:06;4.80;99.90
11599;DHT22;5855;48.840;9.188;2023-02-11T09:08:34;5.10;99.90
11599;DHT22;5855;48.840;9.188;2023-02-11T09:11:01;5.50;99.90
11599;DHT22;5855;48.840;9.188;2023-02-11T09:13:30;5.80;99.90
11599;DHT22;5855;48.840;9.188;2023-02-11T09:15:57;6.20;99.90
11599;DHT22;5855;48.840;9.188;2023-02-11T09:18:24;6.50;99.90
11599;DHT22;5855;48.840;9.188;2023-02-11T09:20:53;6.60;99.90
11599;DHT22;5855;48.840;9.188;2023-02-11T09:23:19;6.90;99.90
11599;DHT22;5855;48.840;9.188;2023-02-11T09:25:46;6.90;99.90
11599;DHT22;5855;48.840;9.188;2023-02-11T09:28:13;6.90;99.90
11599;DHT22;5855;48.840;9.188;2023-02-11T09:30:41;6.90;99.90
11599;DHT22;5855;48.840;9.188;2023-02-11T09:33:08;6.60;99.90
11599;DHT22;5855;48.840;9.188;2023-02-11T09:35:35;6.80;99.90
11599;DHT22;5855;48.840;9.188;2023-02-11T09:38:02;6.80;99.90
11599;DHT22;5855;48.840;9.188;2023-02-11T09:40:28;6.80;99.90
11599;DHT22;5855;48.840;9.188;2023-02-11T09:43:03;6.90;99.90
11599;DHT22;5855;48.840;9.188;2023-02-11T09:45:33;7.20;99.90
11599;DHT22;5855;48.840;9.188;2023-02-11T09:48:05;7.60;99.90
11599;DHT22;5855;48.840;9.188;2023-02-11T09:50:39;7.80;99.90
11599;DHT22;5855;48.840;9.188;2023-02-11T09:53:12;8.30;99.90
11599;DHT22;5855;48.840;9.188;2023-02-11T09:55:41;8.80;99.90
11599;DHT22;5855;48.840;9.188;2023-02-11T09:58:12;9.30;99.90
11599;DHT22;5855;48.840;9.188;2023-02-11T10:00:42;9.60;99.90
11599;DHT22;5855;48.840;9.188;2023-02-11T10:03:46;10.10;99.80
11599;DHT22;5855;48.840;9.188;2023-02-11T10:09:14;10.00;98.40
11599;DHT22;5855;48.840;9.188;2023-02-11T10:11:51;9.90;99.20
11599;DHT22;5855;48.840;9.188;2023-02-11T10:14:31;9.90;99.40
11599;DHT22;5855;48.840;9.188;2023-02-11T10:17:12;10.10;98.50
11599;DHT22;5855;48.840;9.188;2023-02-11T10:20:02;10.20;97.90
11599;DHT22;5855;48.840;9.188;2023-02-11T10:22:35;10.50;97.40
11599;DHT22;5855;48.840;9.188;2023-02-11T10:25:17;10.70;97.20
11599;DHT22;5855;48.840;9.188;2023-02-11T10:27:45;10.90;97.20
11599;DHT22;5855;48.840;9.188;2023-02-11T10:30:20;11.30;96.10
11599;DHT22;5855;48.840;9.188;2023-02-11T10:32:50;11.60;95.40
11599;DHT22;5855;48.840;9.188;2023-02-11T10:35:21;12.10;94.90
11599;DHT22;5855;48.840;9.188;2023-02-11T10:37:49;12.60;94.30
11599;DHT22;5855;48.840;9.188;2023-02-11T10:40:18;13.00;92.30
11599;DHT22;5855;48.840;9.188;2023-02-11T10:42:47;13.40;91.60
11599;DHT22;5855;48.840;9.188;2023-02-11T10:45:20;13.70;91.20
11599;DHT22;5855;48.840;9.188;2023-02-11T10:47:47;13.80;90.20
11599;DHT22;5855;48.840;9.188;2023-02-11T10:50:20;14.10;89.60
11599;DHT22;5855;48.840;9.188;2023-02-11T10:52:48;14.40;87.10
11599;DHT22;5855;48.840;9.188;2023-02-11T10:55:16;14.70;85.80
11599;DHT22;5855;48.840;9.188;2023-02-11T10:57:51;14.70;87.10
11599;DHT22;5855;48.840;9.188;2023-02-11T11:00:26;14.20;87.80
11599;DHT22;5855;48.840;9.188;2023-02-11T11:02:56;14.40;90.30
11599;DHT22;5855;48.840;9.188;2023-02-11T11:05:30;14.60;89.80
11599;DHT22;5855;48.840;9.188;2023-02-11T11:07:59;15.30;88.40
11599;DHT22;5855;48.840;9.188;2023-02-11T11:10:39;15.80;83.80
11599;DHT22;5855;48.840;9.188;2023-02-11T11:13:24;16.40;80.70
11599;DHT22;5855;48.840;9.188;2023-02-11T11:16:08;18.40;75.80
11599;DHT22;5855;48.840;9.188;2023-02-11T11:18:35;19.90;69.60
11599;DHT22;5855;48.840;9.188;2023-02-11T11:21:05;20.90;62.50
11599;DHT22;5855;48.840;9.188;2023-02-11T11:23:34;22.10;57.00
11599;DHT22;5855;48.840;9.188;2023-02-11T11:26:04;22.80;53.60
11599;DHT22;5855;48.840;9.188;2023-02-11T11:28:35;23.80;49.40
11599;DHT22;5855;48.840;9.188;2023-02-11T11:31:05;24.50;45.50
11599;DHT22;5855;48.840;9.188;2023-02-11T11:33:40;24.60;43.50
11599;DHT22;5855;48.840;9.188;2023-02-11T11:36:11;25.00;42.10
11599;DHT22;5855;48.840;9.188;2023-02-11T11:38:44;25.00;41.10
11599;DHT22;5855;48.840;9.188;2023-02-11T11:41:24;25.80;40.30
11599;DHT22;5855;48.840;9.188;2023-02-11T11:43:57;25.80;37.70
11599;DHT22;5855;48.840;9.188;2023-02-11T11:46:27;26.00;37.00
11599;DHT22;5855;48.840;9.188;2023-02-11T11:49:16;26.60;35.60
11599;DHT22;5855;48.840;9.188;2023-02-11T11:51:53;26.10;35.10
11599;DHT22;5855;48.840;9.188;2023-02-11T11:54:23;26.20;35.50
11599;DHT22;5855;48.840;9.188;2023-02-11T11:56:56;27.20;34.50
11599;DHT22;5855;48.840;9.188;2023-02-11T11:59:25;27.60;32.00
11599;DHT22;5855;48.840;9.188;2023-02-11T12:02:18;27.60;31.10
11599;DHT22;5855;48.840;9.188;2023-02-11T12:04:59;26.40;31.80
11599;DHT22;5855;48.840;9.188;2023-02-11T12:07:41;25.50;33.20
11599;DHT22;5855;48.840;9.188;2023-02-11T12:10:49;26.20;33.20
11599;DHT22;5855;48.840;9.188;2023-02-11T12:13:28;27.20;31.80
11599;DHT22;5855;48.840;9.188;2023-02-11T12:16:07;27.30;32.00
11599;DHT22;5855;48.840;9.188;2023-02-11T12:19:02;27.70;31.20
11599;DHT22;5855;48.840;9.188;2023-02-11T12:21:40;28.40;30.00
11599;DHT22;5855;48.840;9.188;2023-02-11T12:24:28;28.10;29.80
11599;DHT22;5855;48.840;9.188;2023-02-11T12:27:02;27.00;30.50
11599;DHT22;5855;48.840;9.188;2023-02-11T12:29:36;25.90;31.00
11599;DHT22;5855;48.840;9.188;2023-02-11T12:32:16;24.30;32.80
11599;DHT22;5855;48.840;9.188;2023-02-11T12:38:10;23.80;34.70
11599;DHT22;5855;48.840;9.188;2023-02-11T12:40:45;23.30;35.20
11599;DHT22;5855;48.840;9.188;2023-02-11T12:43:20;22.30;35.60
11599;DHT22;5855;48.840;9.188;2023-02-11T12:46:23;21.00;37.10
11599;DHT22;5855;48.840;9.188;2023-02-11T12:49:15;20.00;38.90
11599;DHT22;5855;48.840;9.188;2023-02-11T12:51:58;19.40;40.30
11599;DHT22;5855;48.840;9.188;2023-02-11T12:54:33;18.70;42.80
11599;DHT22;5855;48.840;9.188;2023-02-11T12:57:10;18.60;44.00
11599;DHT22;5855;48.840;9.188;2023-02-11T12:59:44;19.00;44.30
11599;DHT22;5855;48.840;9.188;2023-02-11T13:02:25;19.50;43.40
11599;DHT22;5855;48.840;9.188;2023-02-11T13:04:56;20.00;43.10
11599;DHT22;5855;48.840;9.188;2023-02-11T13:07:28;21.00;41.90
11599;DHT22;5855;48.840;9.188;2023-02-11T13:09:59;22.00;40.60
11599;DHT22;5855;48.840;9.188;2023-02-11T13:12:31;22.00;40.20
11599;DHT22;5855;48.840;9.188;2023-02-11T13:15:17;21.90;39.20
11599;DHT22;5855;48.840;9.188;2023-02-11T13:17:50;21.50;40.00
11599;DHT22;5855;48.840;9.188;2023-02-11T13:20:26;21.20;40.90
11599;DHT22;5855;48.840;9.188;2023-02-11T13:22:59;22.10;40.80
11599;DHT22;5855;48.840;9.188;2023-02-11T13:25:35;23.90;39.60
11599;DHT22;5855;48.840;9.188;2023-02-11T13:28:18;24.30;37.60
11599;DHT22;5855;48.840;9.188;2023-02-11T13:30:48;24.60;36.40
11599;DHT22;5855;48.840;9.188;2023-02-11T13:33:33;25.50;35.50
11599;DHT22;5855;48.840;9.188;2023-02-11T13:36:15;26.20;34.00
11599;DHT22;5855;48.840;9.188;2023-02-11T13:38:55;26.10;33.40
11599;DHT22;5855;48.840;9.188;2023-02-11T13:41:27;25.80;33.20
11599;DHT22;5855;48.840;9.188;2023-02-11T13:44:02;25.50;34.20
11599;DHT22;5855;48.840;9.188;2023-02-11T13:46:47;26.00;33.70
11599;DHT22;5855;48.840;9.188;2023-02-11T13:49:19;26.90;32.60
11599;DHT22;5855;48.840;9.188;2023-02-11T13:51:48;27.30;31.20
11599;DHT22;5855;48.840;9.188;2023-02-11T13:54:22;27.50;31.20
11599;DHT22;5855;48.840;9.188;2023-02-11T13:59:57;27.90;30.70
11599;DHT22;5855;48.840;9.188;2023-02-11T14:02:33;28.60;29.50
11599;DHT22;5855;48.840;9.188;2023-02-11T14:05:29;28.80;29.20
11599;DHT22;5855;48.840;9.188;2023-02-11T14:08:17;29.10;28.90
11599;DHT22;5855;48.840;9.188;2023-02-11T14:11:03;28.70;28.20
11599;DHT22;5855;48.840;9.188;2023-02-11T14:13:33;28.10;28.80
11599;DHT22;5855;48.840;9.188;2023-02-11T14:16:08;27.70;29.10
11599;DHT22;5855;48.840;9.188;2023-02-11T14:18:59;27.60;29.10
11599;DHT22;5855;48.840;9.188;2023-02-11T14:21:33;27.40;29.70
11599;DHT22;5855;48.840;9.188;2023-02-11T14:27:06;28.90;28.80
11599;DHT22;5855;48.840;9.188;2023-02-11T14:29:38;29.60;27.50
11599;DHT22;5855;48.840;9.188;2023-02-11T14:32:15;29.30;27.30
11599;DHT22;5855;48.840;9.188;2023-02-11T14:34:52;29.20;27.60
11599;DHT22;5855;48.840;9.188;2023-02-11T14:37:32;28.70;27.90
11599;DHT22;5855;48.840;9.188;2023-02-11T14:40:09;29.00;27.60
11599;DHT22;5855;48.840;9.188;2023-02-11T14:42:40;29.00;27.40
11599;DHT22;5855;48.840;9.188;2023-02-11T14:45:09;29.20;27.10
11599;DHT22;5855;48.840;9.188;2023-02-11T14:47:43;28.80;26.90
11599;DHT22;5855;48.840;9.188;2023-02-11T14:50:23;28.00;27.30
11599;DHT22;5855;48.840;9.188;2023-02-11T14:52:52;27.50;27.80
11599;DHT22;5855;48.840;9.188;2023-02-11T14:55:27;26.40;28.40
11599;DHT22;5855;48.840;9.188;2023-02-11T14:58:13;24.70;29.70
11599;DHT22;5855;48.840;9.188;2023-02-11T15:00:48;22.60;31.80
11599;DHT22;5855;48.840;9.188;2023-02-11T15:03:29;20.80;34.30
11599;DHT22;5855;48.840;9.188;2023-02-11T15:05:58;19.70;36.40
11599;DHT22;5855;48.840;9.188;2023-02-11T15:08:26;18.40;37.90
11599;DHT22;5855;48.840;9.188;2023-02-11T15:10:54;17.50;40.30
11599;DHT22;5855;48.840;9.188;2023-02-11T15:13:24;17.30;41.50
11599;DHT22;5855;48.840;9.188;2023-02-11T15:15:59;17.50;42.00
11599;DHT22;5855;48.840;9.188;2023-02-11T15:18:33;19.10;41.50
11599;DHT22;5855;48.840;9.188;2023-02-11T15:21:02;21.00;38.40
11599;DHT22;5855;48.840;9.188;2023-02-11T15:23:29;22.10;37.00
11599;DHT22;5855;48.840;9.188;2023-02-11T15:25:56;22.70;34.90
11599;DHT22;5855;48.840;9.188;2023-02-11T15:28:29;22.30;34.90
11599;DHT22;5855;48.840;9.188;2023-02-11T15:30:58;21.50;35.70
11599;DHT22;5855;48.840;9.188;2023-02-11T15:33:25;21.20;36.80
11599;DHT22;5855;48.840;9.188;2023-02-11T15:35:56;20.60;36.80
11599;DHT22;5855;48.840;9.188;2023-02-11T15:38:23;20.20;37.80
11599;DHT22;5855;48.840;9.188;2023-02-11T15:40:52;19.70;38.50
11599;DHT22;5855;48.840;9.188;2023-02-11T15:43:19;19.10;39.00
11599;DHT22;5855;48.840;9.188;2023-02-11T15:45:53;18.20;40.90
11599;DHT22;5855;48.840;9.188;2023-02-11T15:48:24;17.20;42.20
11599;DHT22;5855;48.840;9.188;2023-02-11T15:50:57;15.90;44.30
11599;DHT22;5855;48.840;9.188;2023-02-11T15:53:28;14.40;47.70
11599;DHT22;5855;48.840;9.188;2023-02-11T15:56:02;13.40;51.20
11599;DHT22;5855;48.840;9.188;2023-02-11T15:58:35;12.50;55.30
11599;DHT22;5855;48.840;9.188;2023-02-11T16:01:03;11.80;60.00
11599;DHT22;5855;48.840;9.188;2023-02-11T16:03:31;11.10;67.00
11599;DHT22;5855;48.840;9.188;2023-02-11T16:06:16;10.70;74.20
11599;DHT22;5855;48.840;9.188;2023-02-11T16:08:55;10.50;80.10
11599;DHT22;5855;48.840;9.188;2023-02-11T16:11:25;10.30;86.00
11599;DHT22;5855;48.840;9.188;2023-02-11T16:13:54;10.10;90.80
11599;DHT22;5855;48.840;9.188;2023-02-11T16:16:23;9.90;93.60
11599;DHT22;5855;48.840;9.188;2023-02-11T16:18:51;9.80;95.10
11599;DHT22;5855;48.840;9.188;2023-02-11T16:21:20;9.70;97.00
11599;DHT22;5855;48.840;9.188;2023-02-11T16:23:50;9.50;98.70
11599;DHT22;5855;48.840;9.188;2023-02-11T16:26:25;9.40;99.90
11599;DHT22;5855;48.840;9.188;2023-02-11T16:29:01;9.20;99.90
11599;DHT22;5855;48.840;9.188;2023-02-11T16:31:32;9.10;99.90
11599;DHT22;5855;48.840;9.188;2023-02-11T16:34:00;9.00;99.90
11599;DHT22;5855;48.840;9.188;2023-02-11T16:36:30;9.00;99.90